sensor_id;sensor_type;location;lat;lon;timestamp;pressure;altitude;pressure_sealevel;temperature;humidity
33625;BME280;19962;47.820;1.930;2023-06-14T00:00:53;99940.91;;;21.97;48.37
33625;BME280;19962;47.820;1.930;2023-06-14T00:03:19;99925.78;;;21.98;48.39
33625;BME280;19962;47.820;1.930;2023-06-14T00:05:48;99937.28;;;21.97;48.20
33625;BME280;19962;47.820;1.930;2023-06-14T00:08:15;99937.41;;;21.92;48.53
33625;BME280;19962;47.820;1.930;2023-06-14T00:10:41;99933.75;;;21.83;48.63
33625;BME280;19962;47.820;1.930;2023-06-14T00:13:08;99932.78;;;21.65;49.04
33625;BME280;19962;47.820;1.930;2023-06-14T00:15:35;99945.34;;;21.76;48.71
33625;BME280;19962;47.820;1.930;2023-06-14T00:18:02;99941.06;;;21.57;49.40
33625;BME280;19962;47.820;1.930;2023-06-14T00:20:30;99934.59;;;21.48;49.31
33625;BME280;19962;47.820;1.930;2023-06-14T00:23:01;99941.94;;;21.44;49.69
33625;BME280;19962;47.820;1.930;2023-06-14T00:25:28;99930.91;;;21.61;49.39
33625;BME280;19962;47.820;1.930;2023-06-14T00:27:55;99940.44;;;21.60;49.38
33625;BME280;19962;47.820;1.930;2023-06-14T00:30:21;99942.47;;;21.46;49.37
33625;BME280;19962;47.820;1.930;2023-06-14T00:32:47;99948.25;;;21.14;50.33
33625;BME280;19962;47.820;1.930;2023-06-14T00:35:14;99946.81;;;21.16;50.49
33625;BME280;19962;47.820;1.930;2023-06-14T00:37:40;99949.88;;;21.50;49.85
33625;BME280;19962;47.820;1.930;2023-06-14T00:40:07;99945.84;;;21.56;49.72
33625;BME280;19962;47.820;1.930;2023-06-14T00:42:33;99943.66;;;21.31;49.75
33625;BME280;19962;47.820;1.930;2023-06-14T00:45:00;99949.59;;;21.38;49.86
33625;BME280;19962;47.820;1.930;2023-06-14T00:47:27;99945.47;;;21.36;49.79
33625;BME280;19962;47.820;1.930;2023-06-14T00:49:56;99943.25;;;21.24;50.09
33625;BME280;19962;47.820;1.930;2023-06-14T00:52:23;99950.50;;;21.25;50.02
33625;BME280;19962;47.820;1.930;2023-06-14T00:54:52;99950.75;;;21.02;50.31
33625;BME280;19962;47.820;1.930;2023-06-14T00:57:18;99961.91;;;20.88;50.74
33625;BME280;19962;47.820;1.930;2023-06-14T00:59:49;99964.81;;;20.83;50.84
33625;BME280;19962;47.820;1.930;2023-06-14T01:02:16;99970.69;;;20.82;50.60
33625;BME280;19962;47.820;1.930;2023-06-14T01:04:45;99956.09;;;21.12;50.58
33625;BME280;19962;47.820;1.930;2023-06-14T01:10:19;99964.00;;;20.96;51.01
33625;BME280;19962;47.820;1.930;2023-06-14T01:13:01;99966.25;;;20.81;51.37
33625;BME280;19962;47.820;1.930;2023-06-14T01:15:31;99965.44;;;20.94;51.12
33625;BME280;19962;47.820;1.930;2023-06-14T01:17:57;99960.59;;;20.99;50.81
33625;BME280;19962;47.820;1.930;2023-06-14T01:20:30;99968.22;;;21.07;50.36
33625;BME280;19962;47.820;1.930;2023-06-14T01:22:57;99970.19;;;20.93;50.74
33625;BME280;19962;47.820;1.930;2023-06-14T01:25:24;99962.97;;;20.79;51.04
33625;BME280;19962;47.820;1.930;2023-06-14T01:27:53;99962.72;;;20.75;51.45
33625;BME280;19962;47.820;1.930;2023-06-14T01:30:22;99963.75;;;20.79;51.38
33625;BME280;19962;47.820;1.930;2023-06-14T01:32:50;99967.91;;;20.95;51.23
33625;BME280;19962;47.820;1.930;2023-06-14T01:35:17;99963.03;;;20.87;51.10
33625;BME280;19962;47.820;1.930;2023-06-14T01:37:44;99968.72;;;20.96;51.22
33625;BME280;19962;47.820;1.930;2023-06-14T01:40:14;99957.78;;;20.99;51.09
33625;BME280;19962;47.820;1.930;2023-06-14T01:42:41;99961.50;;;21.08;50.64
33625;BME280;19962;47.820;1.930;2023-06-14T01:45:09;99961.09;;;21.01;50.88
33625;BME280;19962;47.820;1.930;2023-06-14T01:47:36;99959.03;;;20.93;51.01
33625;BME280;19962;47.820;1.930;2023-06-14T01:50:04;99962.13;;;20.78;51.18
33625;BME280;19962;47.820;1.930;2023-06-14T01:52:30;99959.03;;;20.66;51.64
33625;BME280;19962;47.820;1.930;2023-06-14T01:54:56;99963.16;;;20.82;51.56
33625;BME280;19962;47.820;1.930;2023-06-14T01:57:24;99961.91;;;20.88;50.99
33625;BME280;19962;47.820;1.930;2023-06-14T01:59:51;99960.97;;;20.79;51.17
33625;BME280;19962;47.820;1.930;2023-06-14T02:02:17;99961.00;;;20.66;51.47
33625;BME280;19962;47.820;1.930;2023-06-14T02:04:43;99969.88;;;20.54;51.54
33625;BME280;19962;47.820;1.930;2023-06-14T02:07:09;99970.00;;;20.49;51.95
33625;BME280;19962;47.820;1.930;2023-06-14T02:09:35;99966.47;;;20.44;52.17
33625;BME280;19962;47.820;1.930;2023-06-14T02:12:02;99965.03;;;20.46;52.12
33625;BME280;19962;47.820;1.930;2023-06-14T02:14:28;99965.25;;;20.63;51.90
33625;BME280;19962;47.820;1.930;2023-06-14T02:16:54;99974.63;;;20.67;51.77
33625;BME280;19962;47.820;1.930;2023-06-14T02:19:21;99971.94;;;20.49;52.15
33625;BME280;19962;47.820;1.930;2023-06-14T02:21:47;99969.56;;;20.42;52.45
33625;BME280;19962;47.820;1.930;2023-06-14T02:24:14;99974.91;;;20.25;53.10
33625;BME280;19962;47.820;1.930;2023-06-14T02:26:41;99974.06;;;20.25;53.30
33625;BME280;19962;47.820;1.930;2023-06-14T02:29:10;99974.59;;;20.40;52.80
33625;BME280;19962;47.820;1.930;2023-06-14T02:31:38;99968.50;;;20.25;53.04
33625;BME280;19962;47.820;1.930;2023-06-14T02:34:04;99975.25;;;20.05;53.69
33625;BME280;19962;47.820;1.930;2023-06-14T02:36:31;99973.25;;;20.24;53.36
33625;BME280;19962;47.820;1.930;2023-06-14T02:38:57;99973.97;;;20.16;53.42
33625;BME280;19962;47.820;1.930;2023-06-14T02:41:24;99971.13;;;20.03;53.86
33625;BME280;19962;47.820;1.930;2023-06-14T02:43:50;99969.34;;;20.07;53.66
33625;BME280;19962;47.820;1.930;2023-06-14T02:46:16;99979.34;;;20.26;53.43
33625;BME280;19962;47.820;1.930;2023-06-14T02:48:42;99974.31;;;20.28;52.99
33625;BME280;19962;47.820;1.930;2023-06-14T02:51:09;99973.44;;;20.14;53.56
33625;BME280;19962;47.820;1.930;2023-06-14T02:53:35;99978.22;;;20.27;53.55
33625;BME280;19962;47.820;1.930;2023-06-14T02:56:02;99985.00;;;20.21;53.50
33625;BME280;19962;47.820;1.930;2023-06-14T02:58:30;99974.31;;;19.96;54.02
33625;BME280;19962;47.820;1.930;2023-06-14T03:00:56;99983.97;;;20.17;53.64
33625;BME280;19962;47.820;1.930;2023-06-14T03:03:22;99984.44;;;20.06;53.95
33625;BME280;19962;47.820;1.930;2023-06-14T03:05:51;99979.66;;;20.38;53.14
33625;BME280;19962;47.820;1.930;2023-06-14T03:08:17;99987.88;;;20.16;53.71
33625;BME280;19962;47.820;1.930;2023-06-14T03:10:48;99987.31;;;20.01;54.25
33625;BME280;19962;47.820;1.930;2023-06-14T03:13:15;99992.66;;;20.29;53.49
33625;BME280;19962;47.820;1.930;2023-06-14T03:15:44;99981.72;;;20.33;53.29
33625;BME280;19962;47.820;1.930;2023-06-14T03:18:11;99991.28;;;20.13;53.82
33625;BME280;19962;47.820;1.930;2023-06-14T03:20:38;99997.59;;;20.00;54.04
33625;BME280;19962;47.820;1.930;2023-06-14T03:23:04;99994.22;;;20.03;54.07
33625;BME280;19962;47.820;1.930;2023-06-14T03:25:31;100002.28;;;20.05;54.26
33625;BME280;19962;47.820;1.930;2023-06-14T03:27:59;100008.75;;;20.00;54.04
33625;BME280;19962;47.820;1.930;2023-06-14T03:30:25;100013.91;;;19.75;54.83
33625;BME280;19962;47.820;1.930;2023-06-14T03:32:51;100019.06;;;19.68;55.28
33625;BME280;19962;47.820;1.930;2023-06-14T03:35:22;100008.31;;;19.93;54.99
33625;BME280;19962;47.820;1.930;2023-06-14T03:37:48;100021.56;;;20.01;54.57
33625;BME280;19962;47.820;1.930;2023-06-14T03:40:16;100020.22;;;19.80;54.93
33625;BME280;19962;47.820;1.930;2023-06-14T03:42:42;100022.25;;;19.75;55.24
33625;BME280;19962;47.820;1.930;2023-06-14T03:45:09;100024.25;;;19.74;55.11
33625;BME280;19962;47.820;1.930;2023-06-14T03:47:35;100020.94;;;19.54;55.66
33625;BME280;19962;47.820;1.930;2023-06-14T03:50:02;100028.69;;;19.38;56.32
33625;BME280;19962;47.820;1.930;2023-06-14T03:52:29;100031.03;;;19.50;56.02
33625;BME280;19962;47.820;1.930;2023-06-14T03:54:55;100030.09;;;19.54;56.06
33625;BME280;19962;47.820;1.930;2023-06-14T03:57:23;100020.94;;;19.35;56.55
33625;BME280;19962;47.820;1.930;2023-06-14T03:59:49;100034.19;;;19.43;56.65
33625;BME280;19962;47.820;1.930;2023-06-14T04:02:16;100026.50;;;19.35;56.63
33625;BME280;19962;47.820;1.930;2023-06-14T04:04:42;100019.50;;;19.38;56.60
33625;BME280;19962;47.820;1.930;2023-06-14T04:07:12;100030.47;;;19.66;55.81
33625;BME280;19962;47.820;1.930;2023-06-14T04:09:39;100034.03;;;19.53;55.90
33625;BME280;19962;47.820;1.930;2023-06-14T04:12:06;100032.66;;;19.32;56.85
33625;BME280;19962;47.820;1.930;2023-06-14T04:14:32;100031.38;;;19.25;57.29
33625;BME280;19962;47.820;1.930;2023-06-14T04:16:59;100027.94;;;19.33;57.06
33625;BME280;19962;47.820;1.930;2023-06-14T04:19:25;100031.91;;;19.45;56.64
33625;BME280;19962;47.820;1.930;2023-06-14T04:21:51;100036.44;;;19.23;57.48
33625;BME280;19962;47.820;1.930;2023-06-14T04:24:18;100034.38;;;19.28;57.60
33625;BME280;19962;47.820;1.930;2023-06-14T04:26:45;100036.34;;;19.46;57.00
33625;BME280;19962;47.820;1.930;2023-06-14T04:29:14;100037.09;;;19.70;56.47
33625;BME280;19962;47.820;1.930;2023-06-14T04:31:42;100037.78;;;19.62;56.28
33625;BME280;19962;47.820;1.930;2023-06-14T04:34:08;100033.34;;;19.43;57.18
33625;BME280;19962;47.820;1.930;2023-06-14T04:36:35;100039.59;;;19.53;56.75
33625;BME280;19962;47.820;1.930;2023-06-14T04:39:03;100040.94;;;19.37;57.14
33625;BME280;19962;47.820;1.930;2023-06-14T04:41:32;100047.91;;;19.35;57.61
33625;BME280;19962;47.820;1.930;2023-06-14T04:44:01;100044.19;;;19.44;57.19
33625;BME280;19962;47.820;1.930;2023-06-14T04:46:28;100052.75;;;19.29;57.74
33625;BME280;19962;47.820;1.930;2023-06-14T04:48:54;100045.06;;;19.40;57.58
33625;BME280;19962;47.820;1.930;2023-06-14T04:51:21;100049.81;;;19.39;57.61
33625;BME280;19962;47.820;1.930;2023-06-14T04:53:48;100051.94;;;19.47;58.00
33625;BME280;19962;47.820;1.930;2023-06-14T04:56:16;100050.84;;;19.62;57.46
33625;BME280;19962;47.820;1.930;2023-06-14T04:58:43;100048.31;;;19.65;57.01
33625;BME280;19962;47.820;1.930;2023-06-14T05:01:09;100052.81;;;19.61;57.18
33625;BME280;19962;47.820;1.930;2023-06-14T05:03:36;100062.81;;;19.62;57.32
33625;BME280;19962;47.820;1.930;2023-06-14T05:06:02;100060.56;;;19.64;57.45
33625;BME280;19962;47.820;1.930;2023-06-14T05:08:28;100059.44;;;19.65;57.04
33625;BME280;19962;47.820;1.930;2023-06-14T05:10:55;100062.44;;;19.69;57.20
33625;BME280;19962;47.820;1.930;2023-06-14T05:13:21;100060.81;;;19.68;57.23
33625;BME280;19962;47.820;1.930;2023-06-14T05:15:48;100062.31;;;19.60;57.33
33625;BME280;19962;47.820;1.930;2023-06-14T05:18:15;100065.09;;;19.60;57.67
33625;BME280;19962;47.820;1.930;2023-06-14T05:20:41;100064.56;;;19.58;57.72
33625;BME280;19962;47.820;1.930;2023-06-14T05:23:08;100068.69;;;19.61;57.95
33625;BME280;19962;47.820;1.930;2023-06-14T05:25:34;100067.88;;;19.60;58.00
33625;BME280;19962;47.820;1.930;2023-06-14T05:28:01;100067.88;;;19.60;58.34
33625;BME280;19962;47.820;1.930;2023-06-14T05:30:27;100071.63;;;19.69;57.89
33625;BME280;19962;47.820;1.930;2023-06-14T05:32:55;100066.00;;;19.74;57.74
33625;BME280;19962;47.820;1.930;2023-06-14T05:35:21;100065.81;;;19.84;57.43
33625;BME280;19962;47.820;1.930;2023-06-14T05:37:49;100077.56;;;19.81;57.79
33625;BME280;19962;47.820;1.930;2023-06-14T05:40:15;100075.22;;;19.88;57.98
33625;BME280;19962;47.820;1.930;2023-06-14T05:42:43;100074.84;;;19.95;57.78
33625;BME280;19962;47.820;1.930;2023-06-14T05:45:09;100079.94;;;20.06;57.37
33625;BME280;19962;47.820;1.930;2023-06-14T05:47:35;100075.44;;;20.10;57.34
33625;BME280;19962;47.820;1.930;2023-06-14T05:50:02;100074.31;;;20.11;57.35
33625;BME280;19962;47.820;1.930;2023-06-14T05:52:28;100072.28;;;20.17;57.55
33625;BME280;19962;47.820;1.930;2023-06-14T05:54:55;100074.13;;;20.21;57.40
33625;BME280;19962;47.820;1.930;2023-06-14T05:57:21;100073.94;;;20.31;57.16
33625;BME280;19962;47.820;1.930;2023-06-14T05:59:47;100084.00;;;20.46;56.63
33625;BME280;19962;47.820;1.930;2023-06-14T06:02:13;100079.28;;;20.46;56.35
33625;BME280;19962;47.820;1.930;2023-06-14T06:04:39;100080.22;;;20.55;55.17
33625;BME280;19962;47.820;1.930;2023-06-14T06:07:06;100086.63;;;20.69;52.49
33625;BME280;19962;47.820;1.930;2023-06-14T06:09:33;100089.53;;;20.78;51.51
33625;BME280;19962;47.820;1.930;2023-06-14T06:11:59;100099.09;;;20.90;51.24
33625;BME280;19962;47.820;1.930;2023-06-14T06:14:25;100091.66;;;20.99;50.83
33625;BME280;19962;47.820;1.930;2023-06-14T06:16:51;100092.34;;;21.05;50.13
33625;BME280;19962;47.820;1.930;2023-06-14T06:19:18;100097.03;;;21.09;49.18
33625;BME280;19962;47.820;1.930;2023-06-14T06:21:44;100104.88;;;21.07;49.29
33625;BME280;19962;47.820;1.930;2023-06-14T06:24:10;100107.22;;;21.14;49.61
33625;BME280;19962;47.820;1.930;2023-06-14T06:26:36;100109.41;;;21.17;48.37
33625;BME280;19962;47.820;1.930;2023-06-14T06:29:03;100107.84;;;21.24;48.52
33625;BME280;19962;47.820;1.930;2023-06-14T06:31:29;100121.41;;;21.31;48.04
33625;BME280;19962;47.820;1.930;2023-06-14T06:33:56;100125.09;;;21.40;47.25
33625;BME280;19962;47.820;1.930;2023-06-14T06:36:22;100129.03;;;21.39;46.84
33625;BME280;19962;47.820;1.930;2023-06-14T06:38:48;100129.47;;;21.32;46.73
33625;BME280;19962;47.820;1.930;2023-06-14T06:41:14;100131.72;;;21.44;47.11
33625;BME280;19962;47.820;1.930;2023-06-14T06:43:40;100133.47;;;21.53;46.30
33625;BME280;19962;47.820;1.930;2023-06-14T06:46:07;100135.66;;;21.56;46.28
33625;BME280;19962;47.820;1.930;2023-06-14T06:48:33;100130.38;;;21.55;46.48
33625;BME280;19962;47.820;1.930;2023-06-14T06:50:59;100132.53;;;21.58;46.85
33625;BME280;19962;47.820;1.930;2023-06-14T06:53:25;100138.72;;;21.68;46.05
33625;BME280;19962;47.820;1.930;2023-06-14T06:55:51;100139.97;;;21.76;46.30
33625;BME280;19962;47.820;1.930;2023-06-14T06:58:17;100142.47;;;21.64;45.70
33625;BME280;19962;47.820;1.930;2023-06-14T07:00:43;100141.94;;;21.75;45.38
33625;BME280;19962;47.820;1.930;2023-06-14T07:03:09;100146.47;;;21.85;45.16
33625;BME280;19962;47.820;1.930;2023-06-14T07:05:36;100146.03;;;21.91;45.04
33625;BME280;19962;47.820;1.930;2023-06-14T07:08:02;100142.63;;;21.94;45.41
33625;BME280;19962;47.820;1.930;2023-06-14T07:10:28;100154.19;;;22.01;45.13
33625;BME280;19962;47.820;1.930;2023-06-14T07:12:55;100152.53;;;22.00;44.65
33625;BME280;19962;47.820;1.930;2023-06-14T07:15:21;100153.56;;;22.04;44.55
33625;BME280;19962;47.820;1.930;2023-06-14T07:17:47;100158.09;;;22.14;44.56
33625;BME280;19962;47.820;1.930;2023-06-14T07:20:13;100144.00;;;22.19;44.23
33625;BME280;19962;47.820;1.930;2023-06-14T07:22:42;100153.81;;;22.16;44.19
33625;BME280;19962;47.820;1.930;2023-06-14T07:25:12;100151.44;;;22.23;44.22
33625;BME280;19962;47.820;1.930;2023-06-14T07:27:42;100157.41;;;22.30;44.19
33625;BME280;19962;47.820;1.930;2023-06-14T07:32:35;100164.41;;;22.41;44.29
33625;BME280;19962;47.820;1.930;2023-06-14T07:35:01;100167.91;;;22.47;44.44
33625;BME280;19962;47.820;1.930;2023-06-14T07:37:29;100168.31;;;22.54;44.28
33625;BME280;19962;47.820;1.930;2023-06-14T07:39:55;100164.22;;;22.60;44.35
33625;BME280;19962;47.820;1.930;2023-06-14T07:42:21;100164.75;;;22.62;44.49
33625;BME280;19962;47.820;1.930;2023-06-14T07:44:47;100166.25;;;22.68;44.92
33625;BME280;19962;47.820;1.930;2023-06-14T07:47:13;100173.69;;;22.72;44.86
33625;BME280;19962;47.820;1.930;2023-06-14T07:49:39;100175.22;;;22.78;44.59
33625;BME280;19962;47.820;1.930;2023-06-14T07:52:06;100183.09;;;22.76;44.54
33625;BME280;19962;47.820;1.930;2023-06-14T07:54:32;100173.44;;;22.82;44.38
33625;BME280;19962;47.820;1.930;2023-06-14T07:56:59;100180.53;;;22.88;44.36
33625;BME280;19962;47.820;1.930;2023-06-14T07:59:26;100176.28;;;22.91;44.42
33625;BME280;19962;47.820;1.930;2023-06-14T08:01:52;100180.91;;;22.95;44.04
33625;BME280;19962;47.820;1.930;2023-06-14T08:04:18;100178.16;;;23.04;43.63
33625;BME280;19962;47.820;1.930;2023-06-14T08:06:44;100182.81;;;23.08;43.54
33625;BME280;19962;47.820;1.930;2023-06-14T08:09:12;100181.03;;;23.12;43.23
33625;BME280;19962;47.820;1.930;2023-06-14T08:11:38;100193.84;;;23.13;43.20
33625;BME280;19962;47.820;1.930;2023-06-14T08:14:05;100180.59;;;23.19;43.03
33625;BME280;19962;47.820;1.930;2023-06-14T08:16:31;100176.31;;;23.21;42.61
33625;BME280;19962;47.820;1.930;2023-06-14T08:18:57;100185.06;;;23.28;42.65
33625;BME280;19962;47.820;1.930;2023-06-14T08:21:23;100183.13;;;23.37;42.67
33625;BME280;19962;47.820;1.930;2023-06-14T08:23:49;100180.84;;;23.48;42.28
33625;BME280;19962;47.820;1.930;2023-06-14T08:26:19;100185.03;;;23.59;42.17
33625;BME280;19962;47.820;1.930;2023-06-14T08:28:45;100176.28;;;23.60;41.86
33625;BME280;19962;47.820;1.930;2023-06-14T08:31:11;100173.31;;;23.65;42.05
33625;BME280;19962;47.820;1.930;2023-06-14T08:33:37;100186.19;;;23.66;41.88
33625;BME280;19962;47.820;1.930;2023-06-14T08:36:05;100177.47;;;23.68;41.41
33625;BME280;19962;47.820;1.930;2023-06-14T08:38:31;100180.94;;;23.73;41.10
33625;BME280;19962;47.820;1.930;2023-06-14T08:40:58;100175.53;;;23.77;41.03
33625;BME280;19962;47.820;1.930;2023-06-14T08:43:24;100181.00;;;23.90;40.83
33625;BME280;19962;47.820;1.930;2023-06-14T08:45:56;100179.69;;;23.96;41.02
33625;BME280;19962;47.820;1.930;2023-06-14T08:48:26;100189.59;;;24.02;40.85
33625;BME280;19962;47.820;1.930;2023-06-14T08:50:57;100184.00;;;24.02;40.19
33625;BME280;19962;47.820;1.930;2023-06-14T08:53:28;100187.97;;;24.01;39.86
33625;BME280;19962;47.820;1.930;2023-06-14T08:55:58;100179.88;;;24.08;40.36
33625;BME280;19962;47.820;1.930;2023-06-14T08:58:36;100187.47;;;24.08;39.87
33625;BME280;19962;47.820;1.930;2023-06-14T09:01:04;100190.75;;;24.10;39.14
33625;BME280;19962;47.820;1.930;2023-06-14T09:03:30;100185.31;;;24.13;38.88
33625;BME280;19962;47.820;1.930;2023-06-14T09:05:58;100181.53;;;24.18;38.82
33625;BME280;19962;47.820;1.930;2023-06-14T09:08:26;100184.03;;;24.19;38.96
33625;BME280;19962;47.820;1.930;2023-06-14T09:10:53;100181.84;;;24.25;38.59
33625;BME280;19962;47.820;1.930;2023-06-14T09:13:19;100185.69;;;24.38;38.00
33625;BME280;19962;47.820;1.930;2023-06-14T09:15:45;100177.41;;;24.49;36.26
33625;BME280;19962;47.820;1.930;2023-06-14T09:18:11;100176.44;;;24.63;35.67
33625;BME280;19962;47.820;1.930;2023-06-14T09:20:37;100184.19;;;24.66;35.82
33625;BME280;19962;47.820;1.930;2023-06-14T09:23:05;100185.19;;;24.61;36.09
33625;BME280;19962;47.820;1.930;2023-06-14T09:25:31;100191.13;;;24.68;35.76
33625;BME280;19962;47.820;1.930;2023-06-14T09:27:57;100192.78;;;24.69;35.24
33625;BME280;19962;47.820;1.930;2023-06-14T09:30:23;100181.88;;;24.68;35.16
33625;BME280;19962;47.820;1.930;2023-06-14T09:32:50;100183.84;;;24.76;34.40
33625;BME280;19962;47.820;1.930;2023-06-14T09:35:18;100183.00;;;24.84;34.17
33625;BME280;19962;47.820;1.930;2023-06-14T09:37:44;100181.66;;;24.90;34.04
33625;BME280;19962;47.820;1.930;2023-06-14T09:40:11;100185.09;;;25.04;34.12
33625;BME280;19962;47.820;1.930;2023-06-14T09:42:37;100185.47;;;25.02;34.02
33625;BME280;19962;47.820;1.930;2023-06-14T09:45:04;100186.25;;;25.03;34.18
33625;BME280;19962;47.820;1.930;2023-06-14T09:47:30;100192.50;;;25.17;33.60
33625;BME280;19962;47.820;1.930;2023-06-14T09:49:56;100181.09;;;25.22;33.03
33625;BME280;19962;47.820;1.930;2023-06-14T09:52:23;100178.28;;;25.30;32.89
33625;BME280;19962;47.820;1.930;2023-06-14T09:54:49;100180.94;;;25.27;32.73
33625;BME280;19962;47.820;1.930;2023-06-14T09:57:20;100180.91;;;25.35;32.14
33625;BME280;19962;47.820;1.930;2023-06-14T09:59:48;100194.31;;;25.30;32.46
33625;BME280;19962;47.820;1.930;2023-06-14T10:04:50;100183.84;;;25.47;32.24
33625;BME280;19962;47.820;1.930;2023-06-14T10:07:20;100196.84;;;25.60;32.16
33625;BME280;19962;47.820;1.930;2023-06-14T10:09:47;100193.00;;;25.65;31.44
33625;BME280;19962;47.820;1.930;2023-06-14T10:12:18;100190.81;;;25.70;31.29
33625;BME280;19962;47.820;1.930;2023-06-14T10:14:52;100199.59;;;25.69;31.23
33625;BME280;19962;47.820;1.930;2023-06-14T10:17:52;100185.88;;;25.67;31.13
33625;BME280;19962;47.820;1.930;2023-06-14T10:21:01;100193.00;;;25.65;31.30
33625;BME280;19962;47.820;1.930;2023-06-14T10:23:35;100200.56;;;25.73;31.00
33625;BME280;19962;47.820;1.930;2023-06-14T10:26:03;100181.66;;;25.82;31.08
33625;BME280;19962;47.820;1.930;2023-06-14T10:28:29;100184.94;;;25.84;31.20
33625;BME280;19962;47.820;1.930;2023-06-14T10:31:02;100193.69;;;25.91;30.92
33625;BME280;19962;47.820;1.930;2023-06-14T10:33:50;100186.25;;;25.95;29.95
33625;BME280;19962;47.820;1.930;2023-06-14T10:38:59;100175.38;;;25.85;30.58
33625;BME280;19962;47.820;1.930;2023-06-14T10:41:27;100183.09;;;25.88;30.38
33625;BME280;19962;47.820;1.930;2023-06-14T10:46:55;100173.38;;;25.85;30.51
33625;BME280;19962;47.820;1.930;2023-06-14T10:52:15;100174.13;;;26.03;30.91
33625;BME280;19962;47.820;1.930;2023-06-14T10:57:38;100179.06;;;26.26;30.46
33625;BME280;19962;47.820;1.930;2023-06-14T11:00:05;100186.91;;;26.21;30.31
33625;BME280;19962;47.820;1.930;2023-06-14T11:05:49;100180.22;;;26.05;30.50
33625;BME280;19962;47.820;1.930;2023-06-14T11:10:58;100179.06;;;26.26;29.93
33625;BME280;19962;47.820;1.930;2023-06-14T11:13:26;100180.44;;;26.20;29.54
33625;BME280;19962;47.820;1.930;2023-06-14T11:15:52;100165.41;;;26.16;29.80
33625;BME280;19962;47.820;1.930;2023-06-14T11:18:21;100174.34;;;26.18;30.14
33625;BME280;19962;47.820;1.930;2023-06-14T11:20:50;100179.00;;;26.35;29.35
33625;BME280;19962;47.820;1.930;2023-06-14T11:23:16;100173.63;;;26.42;29.50
33625;BME280;19962;47.820;1.930;2023-06-14T11:25:42;100165.69;;;26.64;28.73
33625;BME280;19962;47.820;1.930;2023-06-14T11:28:08;100168.03;;;26.62;29.08
33625;BME280;19962;47.820;1.930;2023-06-14T11:30:34;100160.19;;;26.68;29.18
33625;BME280;19962;47.820;1.930;2023-06-14T11:33:00;100168.78;;;26.71;28.91
33625;BME280;19962;47.820;1.930;2023-06-14T11:35:27;100170.75;;;26.71;29.11
33625;BME280;19962;47.820;1.930;2023-06-14T11:37:56;100164.50;;;26.65;28.94
33625;BME280;19962;47.820;1.930;2023-06-14T11:40:26;100159.84;;;26.69;28.80
33625;BME280;19962;47.820;1.930;2023-06-14T11:43:01;100163.75;;;26.77;28.89
33625;BME280;19962;47.820;1.930;2023-06-14T11:45:29;100175.59;;;26.82;28.60
33625;BME280;19962;47.820;1.930;2023-06-14T11:47:56;100163.63;;;26.73;28.36
33625;BME280;19962;47.820;1.930;2023-06-14T11:50:23;100161.84;;;26.69;28.59
33625;BME280;19962;47.820;1.930;2023-06-14T11:52:56;100162.22;;;26.79;28.17
33625;BME280;19962;47.820;1.930;2023-06-14T11:55:24;100162.84;;;26.85;28.45
33625;BME280;19962;47.820;1.930;2023-06-14T11:57:50;100164.84;;;26.84;28.39
33625;BME280;19962;47.820;1.930;2023-06-14T12:00:17;100154.03;;;26.86;28.55
33625;BME280;19962;47.820;1.930;2023-06-14T12:02:51;100155.34;;;26.89;28.61
33625;BME280;19962;47.820;1.930;2023-06-14T12:05:21;100155.13;;;26.94;28.17
33625;BME280;19962;47.820;1.930;2023-06-14T12:07:48;100151.38;;;27.02;28.03
33625;BME280;19962;47.820;1.930;2023-06-14T12:10:14;100154.53;;;27.00;27.97
33625;BME280;19962;47.820;1.930;2023-06-14T12:12:41;100150.91;;;27.00;28.15
33625;BME280;19962;47.820;1.930;2023-06-14T12:15:09;100153.53;;;27.05;28.12
33625;BME280;19962;47.820;1.930;2023-06-14T12:17:37;100159.88;;;27.14;27.91
33625;BME280;19962;47.820;1.930;2023-06-14T12:20:10;100154.66;;;27.04;27.79
33625;BME280;19962;47.820;1.930;2023-06-14T12:22:37;100158.88;;;26.98;28.10
33625;BME280;19962;47.820;1.930;2023-06-14T12:25:04;100155.59;;;26.96;28.06
33625;BME280;19962;47.820;1.930;2023-06-14T12:27:31;100152.41;;;26.97;27.83
33625;BME280;19962;47.820;1.930;2023-06-14T12:30:01;100153.63;;;27.08;27.58
33625;BME280;19962;47.820;1.930;2023-06-14T12:32:29;100144.41;;;27.20;27.56
33625;BME280;19962;47.820;1.930;2023-06-14T12:34:55;100143.34;;;27.24;27.49
33625;BME280;19962;47.820;1.930;2023-06-14T12:37:22;100159.78;;;27.22;27.92
33625;BME280;19962;47.820;1.930;2023-06-14T12:39:48;100153.06;;;27.15;27.87
33625;BME280;19962;47.820;1.930;2023-06-14T12:42:14;100147.53;;;27.18;28.00
33625;BME280;19962;47.820;1.930;2023-06-14T12:44:40;100149.56;;;27.18;28.03
33625;BME280;19962;47.820;1.930;2023-06-14T12:47:08;100159.31;;;27.20;27.94
33625;BME280;19962;47.820;1.930;2023-06-14T12:49:34;100140.75;;;27.19;27.81
33625;BME280;19962;47.820;1.930;2023-06-14T12:52:00;100155.69;;;27.20;28.00
33625;BME280;19962;47.820;1.930;2023-06-14T12:54:26;100138.44;;;27.21;27.76
33625;BME280;19962;47.820;1.930;2023-06-14T12:56:53;100150.75;;;27.29;27.82
33625;BME280;19962;47.820;1.930;2023-06-14T12:59:20;100155.69;;;27.44;28.14
33625;BME280;19962;47.820;1.930;2023-06-14T13:01:46;100149.84;;;27.49;27.70
33625;BME280;19962;47.820;1.930;2023-06-14T13:04:16;100148.88;;;27.57;27.72
33625;BME280;19962;47.820;1.930;2023-06-14T13:06:42;100143.50;;;27.64;27.31
33625;BME280;19962;47.820;1.930;2023-06-14T13:09:08;100148.19;;;27.72;27.62
33625;BME280;19962;47.820;1.930;2023-06-14T13:11:34;100148.09;;;27.80;27.53
33625;BME280;19962;47.820;1.930;2023-06-14T13:14:01;100146.53;;;27.71;27.56
33625;BME280;19962;47.820;1.930;2023-06-14T13:16:27;100150.53;;;27.70;27.42
33625;BME280;19962;47.820;1.930;2023-06-14T13:18:53;100152.06;;;27.67;28.02